Time,TemperatureF,DewpointF,PressureIn,WindDirection,WindDirectionDegrees,WindSpeedMPH,WindSpeedGustMPH,Humidity,HourlyPrecipIn,Conditions,Clouds,dailyrainin,SoftwareType,DateUTC
2013-01-19 00:04:00,19.2,12.9,29.74,North,-999,0.0,0.0,76,0.00,,,-99.99,FreeWX 2.04,2013-01-19 06:04:00,
2013-01-19 00:09:00,19.2,12.9,29.74,North,-999,0.0,0.0,76,0.00,,,-99.99,FreeWX 2.04,2013-01-19 06:09:00,
2013-01-19 00:14:00,19.4,13.1,29.74,North,-999,0.0,0.0,76,0.00,,,-99.99,FreeWX 2.04,2013-01-19 06:14:00,
2013-01-19 00:19:00,19.4,13.5,29.71,North,-999,0.0,0.0,77,0.00,,,-99.99,FreeWX 2.04,2013-01-19 06:19:00,
2013-01-19 00:24:00,19.4,13.5,29.71,North,-999,0.0,0.0,77,0.00,,,-99.99,FreeWX 2.04,2013-01-19 06:24:00,
2013-01-19 00:29:00,19.4,13.5,29.71,North,-999,0.0,0.0,77,0.00,,,-99.99,FreeWX 2.04,2013-01-19 06:29:00,
2013-01-19 00:34:00,19.6,13.6,29.71,North,-999,0.0,0.0,77,0.00,,,-99.99,FreeWX 2.04,2013-01-19 06:34:00,
2013-01-19 00:39:00,19.6,13.6,29.71,North,-999,0.0,0.0,77,0.00,,,-99.99,FreeWX 2.04,2013-01-19 06:39:00,
2013-01-19 00:44:00,19.6,13.6,29.71,North,-999,0.0,0.0,77,0.00,,,-99.99,FreeWX 2.04,2013-01-19 06:44:00,
2013-01-19 00:49:00,19.6,13.6,29.71,North,-999,0.0,0.0,77,0.00,,,-99.99,FreeWX 2.04,2013-01-19 06:49:00,
2013-01-19 00:54:00,19.6,13.6,29.71,North,-999,0.0,0.0,77,0.00,,,-99.99,FreeWX 2.04,2013-01-19 06:54:00,
2013-01-19 00:59:00,19.8,13.8,29.71,North,-999,0.0,0.0,77,0.00,,,-99.99,FreeWX 2.04,2013-01-19 06:59:00,
2013-01-19 01:04:00,19.8,13.8,29.74,North,-999,0.0,0.0,77,0.00,,,-99.99,FreeWX 2.04,2013-01-19 07:04:00,
2013-01-19 01:09:00,19.9,14.0,29.74,North,-999,0.0,0.0,77,0.00,,,-99.99,FreeWX 2.04,2013-01-19 07:09:00,
2013-01-19 01:14:00,19.9,14.0,29.74,North,-999,0.0,0.0,77,0.00,,,-99.99,FreeWX 2.04,2013-01-19 07:14:00,
2013-01-19 01:19:00,20.1,14.4,29.71,North,-999,0.0,0.0,78,0.00,,,-99.99,FreeWX 2.04,2013-01-19 07:19:00,
2013-01-19 01:24:00,20.1,14.4,29.71,North,-999,0.0,0.0,78,0.00,,,-99.99,FreeWX 2.04,2013-01-19 07:24:00,
2013-01-19 01:29:00,20.1,14.4,29.71,North,-999,0.0,0.0,78,0.00,,,-99.99,FreeWX 2.04,2013-01-19 07:29:00,
2013-01-19 01:34:00,20.1,14.4,29.71,North,-999,0.0,0.0,78,0.00,,,-99.99,FreeWX 2.04,2013-01-19 07:34:00,
2013-01-19 01:39:00,20.1,14.4,29.71,North,-999,0.0,0.0,78,0.00,,,-99.99,FreeWX 2.04,2013-01-19 07:39:00,
2013-01-19 01:44:00,20.1,14.4,29.71,North,-999,0.0,0.0,78,0.00,,,-99.99,FreeWX 2.04,2013-01-19 07:44:00,
2013-01-19 01:49:00,20.3,14.5,29.74,North,-999,0.0,0.0,78,0.00,,,-99.99,FreeWX 2.04,2013-01-19 07:49:00,
2013-01-19 01:54:00,20.3,14.5,29.74,North,-999,0.0,0.0,78,0.00,,,-99.99,FreeWX 2.04,2013-01-19 07:54:00,
2013-01-19 01:59:00,20.3,14.5,29.74,North,-999,0.0,0.0,78,0.00,,,-99.99,FreeWX 2.04,2013-01-19 07:59:00,
2013-01-19 02:04:00,20.3,14.5,29.71,North,-999,0.0,0.0,78,0.00,,,-99.99,FreeWX 2.04,2013-01-19 08:04:00,
2013-01-19 02:09:00,20.3,14.5,29.71,North,-999,0.0,0.0,78,0.00,,,-99.99,FreeWX 2.04,2013-01-19 08:09:00,
2013-01-19 02:14:00,20.3,14.5,29.71,North,-999,0.0,0.0,78,0.00,,,-99.99,FreeWX 2.04,2013-01-19 08:14:00,
2013-01-19 02:19:00,20.3,14.5,29.71,North,-999,0.0,0.0,78,0.00,,,-99.99,FreeWX 2.04,2013-01-19 08:19:00,
2013-01-19 02:24:00,20.5,14.7,29.71,North,-999,0.0,0.0,78,0.00,,,-99.99,FreeWX 2.04,2013-01-19 08:24:00,
2013-01-19 02:29:00,20.5,14.7,29.71,North,-999,0.0,0.0,78,0.00,,,-99.99,FreeWX 2.04,2013-01-19 08:29:00,
2013-01-19 02:34:00,20.5,14.7,29.71,North,-999,0.0,0.0,78,0.00,,,-99.99,FreeWX 2.04,2013-01-19 08:34:00,
2013-01-19 02:39:00,20.5,14.7,29.71,North,-999,0.0,0.0,78,0.00,,,-99.99,FreeWX 2.04,2013-01-19 08:39:00,
2013-01-19 02:44:00,20.3,14.5,29.71,North,-999,0.0,0.0,78,0.00,,,-99.99,FreeWX 2.04,2013-01-19 08:44:00,
2013-01-19 02:49:00,20.3,14.9,29.71,North,-999,0.0,0.0,79,0.00,,,-99.99,FreeWX 2.04,2013-01-19 08:49:00,
2013-01-19 02:54:00,20.1,14.7,29.71,North,-999,0.0,0.0,79,0.00,,,-99.99,FreeWX 2.04,2013-01-19 08:54:00,
2013-01-19 02:59:00,20.1,14.7,29.71,North,-999,0.0,0.0,79,0.00,,,-99.99,FreeWX 2.04,2013-01-19 08:59:00,
2013-01-19 03:04:00,19.9,14.5,29.71,North,-999,0.0,0.0,79,0.00,,,-99.99,FreeWX 2.04,2013-01-19 09:04:00,
2013-01-19 03:09:00,20.1,14.7,29.71,North,-999,0.0,0.0,79,0.00,,,-99.99,FreeWX 2.04,2013-01-19 09:09:00,
2013-01-19 03:14:00,20.1,14.7,29.71,North,-999,0.0,0.0,79,0.00,,,-99.99,FreeWX 2.04,2013-01-19 09:14:00,
2013-01-19 03:19:00,20.1,14.7,29.68,North,-999,0.0,0.0,79,0.00,,,-99.99,FreeWX 2.04,2013-01-19 09:19:00,
2013-01-19 03:24:00,20.3,14.9,29.68,North,-999,0.0,0.0,79,0.00,,,-99.99,FreeWX 2.04,2013-01-19 09:24:00,
2013-01-19 03:29:00,20.3,14.9,29.68,North,-999,0.0,0.0,79,0.00,,,-99.99,FreeWX 2.04,2013-01-19 09:29:00,
2013-01-19 03:34:00,20.5,15.1,29.68,North,-999,0.0,0.0,79,0.00,,,-99.99,FreeWX 2.04,2013-01-19 09:34:00,
2013-01-19 03:39:00,20.5,15.1,29.68,North,-999,0.0,0.0,79,0.00,,,-99.99,FreeWX 2.04,2013-01-19 09:39:00,
2013-01-19 03:44:00,20.7,15.3,29.68,North,-999,0.0,0.0,79,0.00,,,-99.99,FreeWX 2.04,2013-01-19 09:44:00,
2013-01-19 03:49:00,20.8,15.4,29.68,North,-999,0.0,0.0,79,0.00,,,-99.99,FreeWX 2.04,2013-01-19 09:49:00,
2013-01-19 03:54:00,20.8,15.4,29.68,North,-999,0.0,0.0,79,0.00,,,-99.99,FreeWX 2.04,2013-01-19 09:54:00,
2013-01-19 03:59:00,21.0,15.6,29.68,North,-999,0.0,0.0,79,0.00,,,-99.99,FreeWX 2.04,2013-01-19 09:59:00,
2013-01-19 04:04:00,21.0,15.6,29.65,North,-999,0.0,0.0,79,0.00,,,-99.99,FreeWX 2.04,2013-01-19 10:04:00,
2013-01-19 04:09:00,21.0,15.6,29.65,North,-999,0.0,0.0,79,0.00,,,-99.99,FreeWX 2.04,2013-01-19 10:09:00,
2013-01-19 04:14:00,21.2,16.0,29.65,North,-999,0.0,0.0,80,0.00,,,-99.99,FreeWX 2.04,2013-01-19 10:14:00,
2013-01-19 04:19:00,21.2,16.0,29.65,North,-999,0.0,0.0,80,0.00,,,-99.99,FreeWX 2.04,2013-01-19 10:19:00,
2013-01-19 04:24:00,21.4,16.2,29.65,North,-999,0.0,0.0,80,0.00,,,-99.99,FreeWX 2.04,2013-01-19 10:24:00,
2013-01-19 04:29:00,21.4,16.2,29.65,North,-999,0.0,0.0,80,0.00,,,-99.99,FreeWX 2.04,2013-01-19 10:29:00,
2013-01-19 04:34:00,21.4,16.2,29.65,North,-999,0.0,0.0,80,0.00,,,-99.99,FreeWX 2.04,2013-01-19 10:34:00,
2013-01-19 04:39:00,21.6,16.3,29.65,North,-999,0.0,0.0,80,0.00,,,-99.99,FreeWX 2.04,2013-01-19 10:39:00,
2013-01-19 04:44:00,21.6,16.7,29.65,North,-999,0.0,0.0,81,0.00,,,-99.99,FreeWX 2.04,2013-01-19 10:44:00,
2013-01-19 04:49:00,21.7,16.9,29.65,North,-999,0.0,0.0,81,0.00,,,-99.99,FreeWX 2.04,2013-01-19 10:49:00,
2013-01-19 04:54:00,21.7,16.9,29.65,North,-999,0.0,0.0,81,0.00,,,-99.99,FreeWX 2.04,2013-01-19 10:54:00,
2013-01-19 04:59:00,21.7,16.9,29.65,North,-999,0.0,0.0,81,0.00,,,-99.99,FreeWX 2.04,2013-01-19 10:59:00,
2013-01-19 05:04:00,21.7,16.9,29.65,North,-999,0.0,0.0,81,0.00,,,-99.99,FreeWX 2.04,2013-01-19 11:04:00,
2013-01-19 05:09:00,21.6,16.7,29.65,North,-999,0.0,0.0,81,0.00,,,-99.99,FreeWX 2.04,2013-01-19 11:09:00,
2013-01-19 06:50:00,15.8,10.8,29.65,North,-999,0.0,0.0,80,0.00,,,-99.99,FreeWX 2.04,2013-01-19 12:50:00,
2013-01-19 06:55:00,16.5,11.7,29.65,North,-999,0.0,0.0,81,0.00,,,-99.99,FreeWX 2.04,2013-01-19 12:55:00,
2013-01-19 07:00:00,17.2,12.4,29.65,North,-999,0.0,0.0,81,0.00,,,-99.99,FreeWX 2.04,2013-01-19 13:00:00,
2013-01-19 07:05:00,18.5,13.6,29.65,North,-999,0.0,0.0,81,0.00,,,-99.99,FreeWX 2.04,2013-01-19 13:05:00,
2013-01-19 07:10:00,19.9,15.3,29.65,North,-999,0.0,0.0,82,0.00,,,-99.99,FreeWX 2.04,2013-01-19 13:10:00,
2013-01-19 07:15:00,21.4,17.1,29.65,North,-999,0.0,0.0,83,0.00,,,-99.99,FreeWX 2.04,2013-01-19 13:15:00,
2013-01-19 07:20:00,22.1,18.0,29.65,North,-999,0.0,0.0,84,0.00,,,-99.99,FreeWX 2.04,2013-01-19 13:20:00,
2013-01-19 07:25:00,22.8,18.7,29.65,North,-999,0.0,0.0,84,0.00,,,-99.99,FreeWX 2.04,2013-01-19 13:25:00,
2013-01-19 07:30:00,23.4,19.6,29.65,North,-999,0.0,0.0,85,0.00,,,-99.99,FreeWX 2.04,2013-01-19 13:30:00,
2013-01-19 07:35:00,23.7,20.1,29.65,North,-999,0.0,0.0,86,0.00,,,-99.99,FreeWX 2.04,2013-01-19 13:35:00,
2013-01-19 07:40:00,24.1,20.5,29.65,North,-999,0.0,0.0,86,0.00,,,-99.99,FreeWX 2.04,2013-01-19 13:40:00,
2013-01-19 07:45:00,24.3,20.7,29.65,North,-999,0.0,0.0,86,0.00,,,-99.99,FreeWX 2.04,2013-01-19 13:45:00,
2013-01-19 07:50:00,24.4,21.2,29.65,North,-999,0.0,0.0,87,0.00,,,-99.99,FreeWX 2.04,2013-01-19 13:50:00,
2013-01-19 07:55:00,24.6,21.4,29.65,North,-999,0.0,0.0,87,0.00,,,-99.99,FreeWX 2.04,2013-01-19 13:55:00,
2013-01-19 08:00:00,24.6,21.4,29.65,North,-999,0.0,0.0,87,0.00,,,-99.99,FreeWX 2.04,2013-01-19 14:00:00,
2013-01-19 08:05:00,24.6,21.4,29.65,North,-999,0.0,0.0,87,0.00,,,-99.99,FreeWX 2.04,2013-01-19 14:05:00,
2013-01-19 08:10:00,24.6,21.4,29.65,North,-999,0.0,0.0,87,0.00,,,-99.99,FreeWX 2.04,2013-01-19 14:10:00,
2013-01-19 08:15:00,24.6,21.4,29.65,North,-999,0.0,0.0,87,0.00,,,-99.99,FreeWX 2.04,2013-01-19 14:15:00,
2013-01-19 08:20:00,24.6,21.4,29.65,North,-999,0.0,0.0,87,0.00,,,-99.99,FreeWX 2.04,2013-01-19 14:20:00,
2013-01-19 08:25:00,24.6,21.4,29.65,North,-999,0.0,0.0,87,0.00,,,-99.99,FreeWX 2.04,2013-01-19 14:25:00,
2013-01-19 08:31:00,24.8,21.6,29.65,North,-999,0.0,0.0,87,0.00,,,-99.99,FreeWX 2.04,2013-01-19 14:31:00,
2013-01-19 08:36:00,24.8,21.6,29.68,North,-999,0.0,0.0,87,0.00,,,-99.99,FreeWX 2.04,2013-01-19 14:36:00,
2013-01-19 08:41:00,24.8,21.6,29.68,North,-999,0.0,0.0,87,0.00,,,-99.99,FreeWX 2.04,2013-01-19 14:41:00,
2013-01-19 08:46:00,25.0,21.7,29.68,North,-999,0.0,0.0,87,0.00,,,-99.99,FreeWX 2.04,2013-01-19 14:46:00,
2013-01-19 08:51:00,25.0,21.4,29.68,North,-999,0.0,0.0,86,0.00,,,-99.99,FreeWX 2.04,2013-01-19 14:51:00,
2013-01-19 08:56:00,24.8,21.2,29.68,North,-999,0.0,0.0,86,0.00,,,-99.99,FreeWX 2.04,2013-01-19 14:56:00,
2013-01-19 09:01:00,24.8,21.0,29.68,North,-999,0.0,0.0,85,0.00,,,-99.99,FreeWX 2.04,2013-01-19 15:01:00,
2013-01-19 09:06:00,24.6,20.5,29.68,North,-999,0.0,0.0,84,0.00,,,-99.99,FreeWX 2.04,2013-01-19 15:06:00,
2013-01-19 09:11:00,24.4,19.8,29.68,North,-999,0.0,0.0,82,0.00,,,-99.99,FreeWX 2.04,2013-01-19 15:11:00,
2013-01-19 09:16:00,24.3,19.2,29.68,North,-999,0.0,0.0,81,0.00,,,-99.99,FreeWX 2.04,2013-01-19 15:16:00,
2013-01-19 09:21:00,24.1,19.0,29.68,North,-999,0.0,0.0,81,0.00,,,-99.99,FreeWX 2.04,2013-01-19 15:21:00,
2013-01-19 09:26:00,23.9,18.9,29.68,North,-999,0.0,0.0,81,0.00,,,-99.99,FreeWX 2.04,2013-01-19 15:26:00,
2013-01-19 09:31:00,23.7,18.5,29.68,North,-999,0.0,0.0,80,0.00,,,-99.99,FreeWX 2.04,2013-01-19 15:31:00,
2013-01-19 09:36:00,23.2,18.0,29.71,North,-999,0.0,0.0,80,0.00,,,-99.99,FreeWX 2.04,2013-01-19 15:36:00,
2013-01-19 09:41:00,22.6,17.1,29.71,North,-999,0.0,0.0,79,0.00,,,-99.99,FreeWX 2.04,2013-01-19 15:41:00,
2013-01-19 09:46:00,21.7,15.6,29.71,North,-999,0.0,0.0,77,0.00,,,-99.99,FreeWX 2.04,2013-01-19 15:46:00,
2013-01-19 09:51:00,20.8,14.2,29.74,North,-999,0.0,0.0,75,0.00,,,-99.99,FreeWX 2.04,2013-01-19 15:51:00,
2013-01-19 09:56:00,20.5,13.8,29.74,North,-999,0.0,0.0,75,0.00,,,-99.99,FreeWX 2.04,2013-01-19 15:56:00,
2013-01-19 10:01:00,19.8,12.9,29.74,North,-999,0.0,0.0,74,0.00,,,-99.99,FreeWX 2.04,2013-01-19 16:01:00,
2013-01-19 10:11:00,18.9,11.7,29.74,North,-999,0.0,0.0,73,0.00,,,-99.99,FreeWX 2.04,2013-01-19 16:11:00,
2013-01-19 10:27:00,18.1,10.6,29.74,North,-999,0.0,0.0,72,0.00,,,-99.99,FreeWX 2.04,2013-01-19 16:27:00,
2013-01-19 10:32:00,17.6,9.5,29.76,North,-999,0.0,0.0,70,0.00,,,-99.99,FreeWX 2.04,2013-01-19 16:32:00,
2013-01-19 10:37:00,17.2,8.6,29.76,North,-999,0.0,0.0,68,0.00,,,-99.99,FreeWX 2.04,2013-01-19 16:37:00,
2013-01-19 10:42:00,16.7,7.3,29.76,North,-999,0.0,0.0,66,0.00,,,-99.99,FreeWX 2.04,2013-01-19 16:42:00,
2013-01-19 10:47:00,16.3,6.3,29.76,North,-999,0.0,0.0,64,0.00,,,-99.99,FreeWX 2.04,2013-01-19 16:47:00,
2013-01-19 10:52:00,16.0,5.9,29.76,North,-999,0.0,0.0,64,0.00,,,-99.99,FreeWX 2.04,2013-01-19 16:52:00,
2013-01-19 10:57:00,15.8,5.9,29.76,North,-999,0.0,0.0,64,0.00,,,-99.99,FreeWX 2.04,2013-01-19 16:57:00,
2013-01-19 11:02:00,15.6,5.4,29.76,North,-999,0.0,0.0,63,0.00,,,-99.99,FreeWX 2.04,2013-01-19 17:02:00,
2013-01-19 11:07:00,15.6,5.4,29.76,North,-999,0.0,0.0,63,0.00,,,-99.99,FreeWX 2.04,2013-01-19 17:07:00,
2013-01-19 11:12:00,15.6,5.0,29.76,North,-999,0.0,0.0,62,0.00,,,-99.99,FreeWX 2.04,2013-01-19 17:12:00,
2013-01-19 11:17:00,15.4,4.8,29.76,North,-999,0.0,0.0,62,0.00,,,-99.99,FreeWX 2.04,2013-01-19 17:17:00,
2013-01-19 11:22:00,15.1,4.1,29.76,North,-999,0.0,0.0,61,0.00,,,-99.99,FreeWX 2.04,2013-01-19 17:22:00,
2013-01-19 11:27:00,14.5,3.2,29.76,North,-999,0.0,0.0,60,0.00,,,-99.99,FreeWX 2.04,2013-01-19 17:27:00,
2013-01-19 11:32:00,14.2,2.5,29.79,North,-999,0.0,0.0,59,0.00,,,-99.99,FreeWX 2.04,2013-01-19 17:32:00,
2013-01-19 11:37:00,14.0,2.3,29.79,North,-999,0.0,0.0,59,0.00,,,-99.99,FreeWX 2.04,2013-01-19 17:37:00,
2013-01-19 11:47:00,13.3,-99.9,29.79,North,-999,0.0,0.0,-999,0.00,,,-99.99,FreeWX 2.04,2013-01-19 17:47:00,
2013-01-19 11:53:00,12.6,-99.9,29.79,North,-999,0.0,0.0,-999,0.00,,,-99.99,FreeWX 2.04,2013-01-19 17:53:00,
2013-01-19 12:03:00,11.7,-99.9,29.79,North,-999,0.0,0.0,-999,0.00,,,-99.99,FreeWX 2.04,2013-01-19 18:03:00,
2013-01-19 12:13:00,11.5,-99.9,29.79,North,-999,0.0,0.0,-999,0.00,,,-99.99,FreeWX 2.04,2013-01-19 18:13:00,
2013-01-19 12:18:00,11.5,-99.9,29.79,North,-999,0.0,0.0,-999,0.00,,,-99.99,FreeWX 2.04,2013-01-19 18:18:00,
2013-01-19 12:23:00,11.5,-99.9,29.79,North,-999,0.0,0.0,-999,0.00,,,-99.99,FreeWX 2.04,2013-01-19 18:23:00,
2013-01-19 12:28:00,11.1,-99.9,29.79,North,-999,0.0,0.0,-999,0.00,,,-99.99,FreeWX 2.04,2013-01-19 18:28:00,
2013-01-19 12:33:00,10.8,-99.9,29.82,North,-999,0.0,0.0,-999,0.00,,,-99.99,FreeWX 2.04,2013-01-19 18:33:00,
2013-01-19 12:38:00,10.4,-99.9,29.82,North,-999,0.0,0.0,-999,0.00,,,-99.99,FreeWX 2.04,2013-01-19 18:38:00,
2013-01-19 12:43:00,10.0,-99.9,29.82,North,-999,0.0,0.0,-999,0.00,,,-99.99,FreeWX 2.04,2013-01-19 18:43:00,
2013-01-19 12:48:00,9.9,-99.9,29.82,North,-999,0.0,0.0,-999,0.00,,,-99.99,FreeWX 2.04,2013-01-19 18:48:00,
2013-01-19 12:53:00,9.5,-99.9,29.82,North,-999,0.0,0.0,-999,0.00,,,-99.99,FreeWX 2.04,2013-01-19 18:53:00,
2013-01-19 12:59:00,9.1,-99.9,29.82,North,-999,0.0,0.0,-999,0.00,,,-99.99,FreeWX 2.04,2013-01-19 18:59:00,
2013-01-19 13:04:00,9.1,-99.9,29.82,North,-999,0.0,0.0,-999,0.00,,,-99.99,FreeWX 2.04,2013-01-19 19:04:00,
2013-01-19 13:14:00,8.4,-99.9,29.82,North,-999,0.0,0.0,-999,0.00,,,-99.99,FreeWX 2.04,2013-01-19 19:14:00,
2013-01-19 13:19:00,7.7,-99.9,29.82,North,-999,0.0,0.0,-999,0.00,,,-99.99,FreeWX 2.04,2013-01-19 19:19:00,
2013-01-19 13:24:00,7.5,-99.9,29.82,North,-999,0.0,0.0,-999,0.00,,,-99.99,FreeWX 2.04,2013-01-19 19:24:00,
2013-01-19 13:34:00,7.9,-99.9,29.82,North,-999,0.0,0.0,-999,0.00,,,-99.99,FreeWX 2.04,2013-01-19 19:34:00,
2013-01-19 13:39:00,7.9,-99.9,29.82,North,-999,0.0,0.0,-999,0.00,,,-99.99,FreeWX 2.04,2013-01-19 19:39:00,
2013-01-19 13:44:00,7.7,-99.9,29.82,North,-999,0.0,0.0,-999,0.00,,,-99.99,FreeWX 2.04,2013-01-19 19:44:00,
2013-01-19 13:49:00,7.7,-99.9,29.85,North,-999,0.0,0.0,-999,0.00,,,-99.99,FreeWX 2.04,2013-01-19 19:49:00,
2013-01-19 13:54:00,7.3,-99.9,29.85,North,-999,0.0,0.0,-999,0.00,,,-99.99,FreeWX 2.04,2013-01-19 19:54:00,
2013-01-19 13:59:00,6.8,-99.9,29.85,North,-999,0.0,0.0,-999,0.00,,,-99.99,FreeWX 2.04,2013-01-19 19:59:00,
2013-01-19 14:04:00,6.6,-99.9,29.85,North,-999,0.0,0.0,-999,0.00,,,-99.99,FreeWX 2.04,2013-01-19 20:04:00,
2013-01-19 14:09:00,6.6,-99.9,29.85,North,-999,0.0,0.0,-999,0.00,,,-99.99,FreeWX 2.04,2013-01-19 20:09:00,
2013-01-19 14:14:00,6.6,-99.9,29.85,North,-999,0.0,0.0,-999,0.00,,,-99.99,FreeWX 2.04,2013-01-19 20:14:00,
2013-01-19 14:19:00,6.3,-99.9,29.85,North,-999,0.0,0.0,-999,0.00,,,-99.99,FreeWX 2.04,2013-01-19 20:19:00,
2013-01-19 14:25:00,6.3,-99.9,29.85,North,-999,0.0,0.0,-999,0.00,,,-99.99,FreeWX 2.04,2013-01-19 20:25:00,
2013-01-19 14:30:00,6.4,-99.9,29.85,North,-999,0.0,0.0,-999,0.00,,,-99.99,FreeWX 2.04,2013-01-19 20:30:00,
2013-01-19 14:35:00,6.3,-99.9,29.88,North,-999,0.0,0.0,-999,0.00,,,-99.99,FreeWX 2.04,2013-01-19 20:35:00,
2013-01-19 14:40:00,5.9,-99.9,29.88,North,-999,0.0,0.0,-999,0.00,,,-99.99,FreeWX 2.04,2013-01-19 20:40:00,
2013-01-19 14:45:00,5.5,-99.9,29.88,North,-999,0.0,0.0,-999,0.00,,,-99.99,FreeWX 2.04,2013-01-19 20:45:00,
2013-01-19 15:00:00,4.8,-99.9,29.88,North,-999,0.0,0.0,-999,0.00,,,-99.99,FreeWX 2.04,2013-01-19 21:00:00,
2013-01-19 15:05:00,4.8,-99.9,29.91,North,-999,0.0,0.0,-999,0.00,,,-99.99,FreeWX 2.04,2013-01-19 21:05:00,
2013-01-19 15:10:00,4.8,-99.9,29.91,North,-999,0.0,0.0,-999,0.00,,,-99.99,FreeWX 2.04,2013-01-19 21:10:00,
2013-01-19 15:15:00,4.6,-99.9,29.91,North,-999,0.0,0.0,-999,0.00,,,-99.99,FreeWX 2.04,2013-01-19 21:15:00,
2013-01-19 15:31:00,4.5,-99.9,29.94,North,-999,0.0,0.0,-999,0.00,,,-99.99,FreeWX 2.04,2013-01-19 21:31:00,
2013-01-19 15:47:00,4.3,-99.9,29.94,North,-999,0.0,0.0,-999,0.00,,,-99.99,FreeWX 2.04,2013-01-19 21:47:00,
2013-01-19 15:52:00,4.1,-99.9,29.94,North,-999,0.0,0.0,-999,0.00,,,-99.99,FreeWX 2.04,2013-01-19 21:52:00,
2013-01-19 15:57:00,3.7,-99.9,29.94,North,-999,0.0,0.0,-999,0.00,,,-99.99,FreeWX 2.04,2013-01-19 21:57:00,
2013-01-19 16:02:00,3.6,-99.9,29.97,North,-999,0.0,0.0,-999,0.00,,,-99.99,FreeWX 2.04,2013-01-19 22:02:00,
2013-01-19 16:07:00,3.4,-99.9,29.97,North,-999,0.0,0.0,-999,0.00,,,-99.99,FreeWX 2.04,2013-01-19 22:07:00,
2013-01-19 16:12:00,3.2,-99.9,29.97,North,-999,0.0,0.0,-999,0.00,,,-99.99,FreeWX 2.04,2013-01-19 22:12:00,
2013-01-19 16:17:00,3.2,-99.9,29.97,North,-999,0.0,0.0,-999,0.00,,,-99.99,FreeWX 2.04,2013-01-19 22:17:00,
2013-01-19 16:22:00,3.2,-99.9,29.97,North,-999,0.0,0.0,-999,0.00,,,-99.99,FreeWX 2.04,2013-01-19 22:22:00,
2013-01-19 16:27:00,3.0,-99.9,29.97,North,-999,0.0,0.0,-999,0.00,,,-99.99,FreeWX 2.04,2013-01-19 22:27:00,
2013-01-19 16:32:00,2.8,-99.9,30.00,North,-999,0.0,0.0,-999,0.00,,,-99.99,FreeWX 2.04,2013-01-19 22:32:00,
2013-01-19 16:37:00,2.8,-99.9,30.00,North,-999,0.0,0.0,-999,0.00,,,-99.99,FreeWX 2.04,2013-01-19 22:37:00,
2013-01-19 16:42:00,2.8,-99.9,30.00,North,-999,0.0,0.0,-999,0.00,,,-99.99,FreeWX 2.04,2013-01-19 22:42:00,
2013-01-19 16:47:00,2.7,-99.9,30.00,North,-999,0.0,0.0,-999,0.00,,,-99.99,FreeWX 2.04,2013-01-19 22:47:00,
2013-01-19 16:58:00,2.5,-99.9,30.00,North,-999,0.0,0.0,-999,0.00,,,-99.99,FreeWX 2.04,2013-01-19 22:58:00,
2013-01-19 17:03:00,2.5,-99.9,30.03,North,-999,0.0,0.0,-999,0.00,,,-99.99,FreeWX 2.04,2013-01-19 23:03:00,
2013-01-19 17:08:00,2.5,-99.9,30.03,North,-999,0.0,0.0,-999,0.00,,,-99.99,FreeWX 2.04,2013-01-19 23:08:00,
2013-01-19 17:13:00,2.3,-99.9,30.03,North,-999,0.0,0.0,-999,0.00,,,-99.99,FreeWX 2.04,2013-01-19 23:13:00,
2013-01-19 17:18:00,2.3,-99.9,30.03,North,-999,0.0,0.0,-999,0.00,,,-99.99,FreeWX 2.04,2013-01-19 23:18:00,
2013-01-19 17:23:00,2.1,-99.9,30.03,North,-999,0.0,0.0,-999,0.00,,,-99.99,FreeWX 2.04,2013-01-19 23:23:00,
2013-01-19 17:28:00,1.9,-99.9,30.03,North,-999,0.0,0.0,-999,0.00,,,-99.99,FreeWX 2.04,2013-01-19 23:28:00,
2013-01-19 17:33:00,1.9,-99.9,30.06,North,-999,0.0,0.0,-999,0.00,,,-99.99,FreeWX 2.04,2013-01-19 23:33:00,
2013-01-19 17:43:00,1.9,-99.9,30.06,North,-999,0.0,0.0,-999,0.00,,,-99.99,FreeWX 2.04,2013-01-19 23:43:00,
2013-01-19 17:48:00,1.9,-99.9,30.06,North,-999,0.0,0.0,-999,0.00,,,-99.99,FreeWX 2.04,2013-01-19 23:48:00,
2013-01-19 17:53:00,1.9,-99.9,30.06,North,-999,0.0,0.0,-999,0.00,,,-99.99,FreeWX 2.04,2013-01-19 23:53:00,
2013-01-19 17:58:00,1.8,-99.9,30.06,North,-999,0.0,0.0,-999,0.00,,,-99.99,FreeWX 2.04,2013-01-19 23:58:00,
2013-01-19 18:04:00,1.8,-99.9,30.06,North,-999,0.0,0.0,-999,0.00,,,-99.99,FreeWX 2.04,2013-01-20 00:04:00,
2013-01-19 18:09:00,1.6,-99.9,30.06,North,-999,0.0,0.0,-999,0.00,,,-99.99,FreeWX 2.04,2013-01-20 00:09:00,
2013-01-19 18:14:00,1.4,-99.9,30.06,North,-999,0.0,0.0,-999,0.00,,,-99.99,FreeWX 2.04,2013-01-20 00:14:00,
2013-01-19 18:24:00,1.2,-99.9,30.09,North,-999,0.0,0.0,-999,0.00,,,-99.99,FreeWX 2.04,2013-01-20 00:24:00,
2013-01-19 18:29:00,1.0,-99.9,30.09,North,-999,0.0,0.0,-999,0.00,,,-99.99,FreeWX 2.04,2013-01-20 00:29:00,
2013-01-19 18:34:00,1.0,-99.9,30.09,North,-999,0.0,0.0,-999,0.00,,,-99.99,FreeWX 2.04,2013-01-20 00:34:00,
2013-01-19 18:39:00,0.9,-99.9,30.09,North,-999,0.0,0.0,-999,0.00,,,-99.99,FreeWX 2.04,2013-01-20 00:39:00,
2013-01-19 18:44:00,0.7,-99.9,30.09,North,-999,0.0,0.0,-999,0.00,,,-99.99,FreeWX 2.04,2013-01-20 00:44:00,
2013-01-19 18:49:00,0.7,-99.9,30.12,North,-999,0.0,0.0,-999,0.00,,,-99.99,FreeWX 2.04,2013-01-20 00:49:00,
2013-01-19 18:54:00,0.5,-99.9,30.12,North,-999,0.0,0.0,-999,0.00,,,-99.99,FreeWX 2.04,2013-01-20 00:54:00,
2013-01-19 19:04:00,0.3,-99.9,30.12,North,-999,0.0,0.0,-999,0.00,,,-99.99,FreeWX 2.04,2013-01-20 01:04:00,
2013-01-19 19:19:00,-0.4,-99.9,30.15,North,-999,0.0,0.0,-999,0.00,,,-99.99,FreeWX 2.04,2013-01-20 01:19:00,
2013-01-19 19:24:00,-0.6,-99.9,30.15,North,-999,0.0,0.0,-999,0.00,,,-99.99,FreeWX 2.04,2013-01-20 01:24:00,
2013-01-19 19:29:00,-0.8,-99.9,30.15,North,-999,0.0,0.0,-999,0.00,,,-99.99,FreeWX 2.04,2013-01-20 01:29:00,
2013-01-19 19:34:00,-0.9,-99.9,30.15,North,-999,0.0,0.0,-999,0.00,,,-99.99,FreeWX 2.04,2013-01-20 01:34:00,
2013-01-19 19:39:00,-0.9,-99.9,30.15,North,-999,0.0,0.0,-999,0.00,,,-99.99,FreeWX 2.04,2013-01-20 01:39:00,
2013-01-19 19:44:00,-1.1,-99.9,30.15,North,-999,0.0,0.0,-999,0.00,,,-99.99,FreeWX 2.04,2013-01-20 01:44:00,
2013-01-19 19:49:00,-1.3,-99.9,30.15,North,-999,0.0,0.0,-999,0.00,,,-99.99,FreeWX 2.04,2013-01-20 01:49:00,
2013-01-19 19:55:00,-1.3,-99.9,30.15,North,-999,0.0,0.0,-999,0.00,,,-99.99,FreeWX 2.04,2013-01-20 01:55:00,
2013-01-19 20:00:00,-1.5,-99.9,30.15,North,-999,0.0,0.0,-999,0.00,,,-99.99,FreeWX 2.04,2013-01-20 02:00:00,
2013-01-19 20:05:00,-1.8,-99.9,30.18,North,-999,0.0,0.0,-999,0.00,,,-99.99,FreeWX 2.04,2013-01-20 02:05:00,
2013-01-19 20:10:00,-1.8,-99.9,30.18,North,-999,0.0,0.0,-999,0.00,,,-99.99,FreeWX 2.04,2013-01-20 02:10:00,
2013-01-19 20:15:00,-2.0,-99.9,30.18,North,-999,0.0,0.0,-999,0.00,,,-99.99,FreeWX 2.04,2013-01-20 02:15:00,
2013-01-19 20:20:00,-2.2,-99.9,30.18,North,-999,0.0,0.0,-999,0.00,,,-99.99,FreeWX 2.04,2013-01-20 02:20:00,
2013-01-19 20:25:00,-2.4,-99.9,30.18,North,-999,0.0,0.0,-999,0.00,,,-99.99,FreeWX 2.04,2013-01-20 02:25:00,
2013-01-19 20:30:00,-2.4,-99.9,30.18,North,-999,0.0,0.0,-999,0.00,,,-99.99,FreeWX 2.04,2013-01-20 02:30:00,
2013-01-19 20:35:00,-2.6,-99.9,30.18,North,-999,0.0,0.0,-999,0.00,,,-99.99,FreeWX 2.04,2013-01-20 02:35:00,
2013-01-19 20:40:00,-2.6,-99.9,30.18,North,-999,0.0,0.0,-999,0.00,,,-99.99,FreeWX 2.04,2013-01-20 02:40:00,
2013-01-19 20:50:00,-2.7,-99.9,30.18,North,-999,0.0,0.0,-999,0.00,,,-99.99,FreeWX 2.04,2013-01-20 02:50:00,
2013-01-19 20:55:00,-2.7,-99.9,30.18,North,-999,0.0,0.0,-999,0.00,,,-99.99,FreeWX 2.04,2013-01-20 02:55:00,
2013-01-19 21:16:00,-3.3,-99.9,30.21,North,-999,0.0,0.0,-999,0.00,,,-99.99,FreeWX 2.04,2013-01-20 03:16:00,
2013-01-19 21:22:00,-3.5,-99.9,30.21,North,-999,0.0,0.0,-999,0.00,,,-99.99,FreeWX 2.04,2013-01-20 03:22:00,
2013-01-19 21:32:00,-3.8,-99.9,30.21,North,-999,0.0,0.0,-999,0.00,,,-99.99,FreeWX 2.04,2013-01-20 03:32:00,
2013-01-19 21:37:00,-4.0,-99.9,30.21,North,-999,0.0,0.0,-999,0.00,,,-99.99,FreeWX 2.04,2013-01-20 03:37:00,
2013-01-19 21:42:00,-4.2,-99.9,30.21,North,-999,0.0,0.0,-999,0.00,,,-99.99,FreeWX 2.04,2013-01-20 03:42:00,
2013-01-19 21:47:00,-4.4,-99.9,30.21,North,-999,0.0,0.0,-999,0.00,,,-99.99,FreeWX 2.04,2013-01-20 03:47:00,
2013-01-19 21:52:00,-4.4,-99.9,30.21,North,-999,0.0,0.0,-999,0.00,,,-99.99,FreeWX 2.04,2013-01-20 03:52:00,
2013-01-19 22:02:00,-4.7,-99.9,30.21,North,-999,0.0,0.0,-999,0.00,,,-99.99,FreeWX 2.04,2013-01-20 04:02:00,
2013-01-19 22:07:00,-4.9,-99.9,30.21,North,-999,0.0,0.0,-999,0.00,,,-99.99,FreeWX 2.04,2013-01-20 04:07:00,
2013-01-19 22:13:00,-4.9,-99.9,30.21,North,-999,0.0,0.0,-999,0.00,,,-99.99,FreeWX 2.04,2013-01-20 04:13:00,
2013-01-19 22:23:00,-5.1,-99.9,30.21,North,-999,0.0,0.0,-999,0.00,,,-99.99,FreeWX 2.04,2013-01-20 04:23:00,
2013-01-19 22:28:00,-5.1,-99.9,30.21,North,-999,0.0,0.0,-999,0.00,,,-99.99,FreeWX 2.04,2013-01-20 04:28:00,
2013-01-19 22:38:00,-5.1,-99.9,30.24,North,-999,0.0,0.0,-999,0.00,,,-99.99,FreeWX 2.04,2013-01-20 04:38:00,
2013-01-19 22:43:00,-5.3,-99.9,30.24,North,-999,0.0,0.0,-999,0.00,,,-99.99,FreeWX 2.04,2013-01-20 04:43:00,
2013-01-19 22:48:00,-5.4,-99.9,30.24,North,-999,0.0,0.0,-999,0.00,,,-99.99,FreeWX 2.04,2013-01-20 04:48:00,
2013-01-19 22:53:00,-5.4,-99.9,30.24,North,-999,0.0,0.0,-999,0.00,,,-99.99,FreeWX 2.04,2013-01-20 04:53:00,
2013-01-19 22:58:00,-5.6,-99.9,30.24,North,-999,0.0,0.0,-999,0.00,,,-99.99,FreeWX 2.04,2013-01-20 04:58:00,
2013-01-19 23:03:00,-6.0,-99.9,30.24,North,-999,0.0,0.0,-999,0.00,,,-99.99,FreeWX 2.04,2013-01-20 05:03:00,
2013-01-19 23:08:00,-6.2,-99.9,30.24,North,-999,0.0,0.0,-999,0.00,,,-99.99,FreeWX 2.04,2013-01-20 05:08:00,
2013-01-19 23:13:00,-6.2,-99.9,30.24,North,-999,0.0,0.0,-999,0.00,,,-99.99,FreeWX 2.04,2013-01-20 05:13:00,
2013-01-19 23:18:00,-6.2,-99.9,30.24,North,-999,0.0,0.0,-999,0.00,,,-99.99,FreeWX 2.04,2013-01-20 05:18:00,
2013-01-19 23:23:00,-6.0,-99.9,30.24,North,-999,0.0,0.0,-999,0.00,,,-99.99,FreeWX 2.04,2013-01-20 05:23:00,
2013-01-19 23:28:00,-6.0,-99.9,30.24,North,-999,0.0,0.0,-999,0.00,,,-99.99,FreeWX 2.04,2013-01-20 05:28:00,
2013-01-19 23:33:00,-6.3,-99.9,30.24,North,-999,0.0,0.0,-999,0.00,,,-99.99,FreeWX 2.04,2013-01-20 05:33:00,
2013-01-19 23:38:00,-6.3,-99.9,30.24,North,-999,0.0,0.0,-999,0.00,,,-99.99,FreeWX 2.04,2013-01-20 05:38:00,
2013-01-19 23:43:00,-6.5,-99.9,30.24,North,-999,0.0,0.0,-999,0.00,,,-99.99,FreeWX 2.04,2013-01-20 05:43:00,
2013-01-19 23:48:00,-6.7,-99.9,30.24,North,-999,0.0,0.0,-999,0.00,,,-99.99,FreeWX 2.04,2013-01-20 05:48:00,
2013-01-19 23:53:00,-6.9,-99.9,30.24,North,-999,0.0,0.0,-999,0.00,,,-99.99,FreeWX 2.04,2013-01-20 05:53:00,
2013-01-19 23:58:00,-6.9,-99.9,30.24,North,-999,0.0,0.0,-999,0.00,,,-99.99,FreeWX 2.04,2013-01-20 05:58:00,